sensor_id;sensor_type;location;lat;lon;timestamp;P1;durP1;ratioP1;P2;durP2;ratioP2
58468;SDS011;44257;44.804;10.220;2023-05-07T00:04:25;3.33;;;1.88;;
58468;SDS011;44257;44.804;10.220;2023-05-07T00:06:50;2.92;;;1.73;;
58468;SDS011;44257;44.804;10.220;2023-05-07T00:09:16;2.80;;;1.98;;
58468;SDS011;44257;44.804;10.220;2023-05-07T00:11:42;2.85;;;1.73;;
58468;SDS011;44257;44.804;10.220;2023-05-07T00:14:08;3.70;;;1.80;;
58468;SDS011;44257;44.804;10.220;2023-05-07T00:16:34;2.63;;;1.70;;
58468;SDS011;44257;44.804;10.220;2023-05-07T00:18:59;4.45;;;2.05;;
58468;SDS011;44257;44.804;10.220;2023-05-07T00:21:25;2.90;;;1.85;;
58468;SDS011;44257;44.804;10.220;2023-05-07T00:23:52;3.70;;;2.05;;
58468;SDS011;44257;44.804;10.220;2023-05-07T00:26:19;3.40;;;2.30;;
58468;SDS011;44257;44.804;10.220;2023-05-07T00:28:47;4.57;;;2.20;;
58468;SDS011;44257;44.804;10.220;2023-05-07T00:31:13;2.75;;;1.88;;
58468;SDS011;44257;44.804;10.220;2023-05-07T00:33:38;2.67;;;1.67;;
58468;SDS011;44257;44.804;10.220;2023-05-07T00:36:04;4.32;;;1.80;;
58468;SDS011;44257;44.804;10.220;2023-05-07T00:38:30;3.28;;;2.30;;
58468;SDS011;44257;44.804;10.220;2023-05-07T00:40:56;3.15;;;1.98;;
58468;SDS011;44257;44.804;10.220;2023-05-07T00:43:22;4.63;;;2.15;;
58468;SDS011;44257;44.804;10.220;2023-05-07T00:45:48;3.25;;;1.85;;
58468;SDS011;44257;44.804;10.220;2023-05-07T00:48:14;3.58;;;2.05;;
58468;SDS011;44257;44.804;10.220;2023-05-07T00:50:40;6.07;;;1.90;;
58468;SDS011;44257;44.804;10.220;2023-05-07T00:53:06;3.33;;;1.90;;
58468;SDS011;44257;44.804;10.220;2023-05-07T00:55:32;2.72;;;1.50;;
58468;SDS011;44257;44.804;10.220;2023-05-07T00:57:58;2.90;;;1.98;;
58468;SDS011;44257;44.804;10.220;2023-05-07T01:00:24;3.25;;;1.90;;
58468;SDS011;44257;44.804;10.220;2023-05-07T01:02:50;3.22;;;2.05;;
58468;SDS011;44257;44.804;10.220;2023-05-07T01:05:17;3.50;;;1.70;;
58468;SDS011;44257;44.804;10.220;2023-05-07T01:07:45;3.58;;;1.90;;
58468;SDS011;44257;44.804;10.220;2023-05-07T01:10:12;5.38;;;1.98;;
58468;SDS011;44257;44.804;10.220;2023-05-07T01:12:39;5.00;;;1.70;;
58468;SDS011;44257;44.804;10.220;2023-05-07T01:15:06;3.35;;;1.90;;
58468;SDS011;44257;44.804;10.220;2023-05-07T01:17:41;3.53;;;1.70;;
58468;SDS011;44257;44.804;10.220;2023-05-07T01:20:14;4.07;;;1.77;;
58468;SDS011;44257;44.804;10.220;2023-05-07T01:22:43;5.28;;;1.92;;
58468;SDS011;44257;44.804;10.220;2023-05-07T01:25:09;2.45;;;1.52;;
58468;SDS011;44257;44.804;10.220;2023-05-07T01:27:40;3.05;;;1.70;;
58468;SDS011;44257;44.804;10.220;2023-05-07T01:30:06;4.78;;;1.95;;
58468;SDS011;44257;44.804;10.220;2023-05-07T01:35:19;4.78;;;2.20;;
58468;SDS011;44257;44.804;10.220;2023-05-07T01:37:47;2.67;;;1.80;;
58468;SDS011;44257;44.804;10.220;2023-05-07T01:40:14;4.22;;;1.80;;
58468;SDS011;44257;44.804;10.220;2023-05-07T01:42:41;3.00;;;2.17;;
58468;SDS011;44257;44.804;10.220;2023-05-07T01:45:09;3.45;;;2.03;;
58468;SDS011;44257;44.804;10.220;2023-05-07T01:47:35;3.85;;;1.98;;
58468;SDS011;44257;44.804;10.220;2023-05-07T01:50:03;6.05;;;2.28;;
58468;SDS011;44257;44.804;10.220;2023-05-07T01:52:33;4.30;;;2.05;;
58468;SDS011;44257;44.804;10.220;2023-05-07T01:55:00;4.63;;;2.17;;
58468;SDS011;44257;44.804;10.220;2023-05-07T01:57:25;4.80;;;2.58;;
58468;SDS011;44257;44.804;10.220;2023-05-07T01:59:51;2.72;;;1.85;;
58468;SDS011;44257;44.804;10.220;2023-05-07T02:02:17;6.32;;;1.85;;
58468;SDS011;44257;44.804;10.220;2023-05-07T02:04:44;3.67;;;2.20;;
58468;SDS011;44257;44.804;10.220;2023-05-07T02:07:10;4.10;;;1.92;;
58468;SDS011;44257;44.804;10.220;2023-05-07T02:09:37;5.38;;;2.03;;
58468;SDS011;44257;44.804;10.220;2023-05-07T02:12:03;4.13;;;2.13;;
58468;SDS011;44257;44.804;10.220;2023-05-07T02:14:29;3.17;;;2.15;;
58468;SDS011;44257;44.804;10.220;2023-05-07T02:16:55;5.47;;;2.45;;
58468;SDS011;44257;44.804;10.220;2023-05-07T02:19:21;4.55;;;2.85;;
58468;SDS011;44257;44.804;10.220;2023-05-07T02:21:47;5.88;;;2.83;;
58468;SDS011;44257;44.804;10.220;2023-05-07T02:24:13;4.95;;;2.65;;
58468;SDS011;44257;44.804;10.220;2023-05-07T02:26:39;3.80;;;2.35;;
58468;SDS011;44257;44.804;10.220;2023-05-07T02:29:06;3.70;;;2.80;;
58468;SDS011;44257;44.804;10.220;2023-05-07T02:31:32;4.13;;;2.70;;
58468;SDS011;44257;44.804;10.220;2023-05-07T02:34:00;4.63;;;2.95;;
58468;SDS011;44257;44.804;10.220;2023-05-07T02:36:26;5.63;;;3.40;;
58468;SDS011;44257;44.804;10.220;2023-05-07T02:38:59;5.82;;;3.63;;
58468;SDS011;44257;44.804;10.220;2023-05-07T02:41:26;5.20;;;3.80;;
58468;SDS011;44257;44.804;10.220;2023-05-07T02:43:53;4.80;;;3.50;;
58468;SDS011;44257;44.804;10.220;2023-05-07T02:46:19;6.70;;;3.92;;
58468;SDS011;44257;44.804;10.220;2023-05-07T02:48:50;5.65;;;4.10;;
58468;SDS011;44257;44.804;10.220;2023-05-07T02:51:19;5.75;;;4.28;;
58468;SDS011;44257;44.804;10.220;2023-05-07T02:53:46;5.60;;;4.05;;
58468;SDS011;44257;44.804;10.220;2023-05-07T02:56:12;6.60;;;4.13;;
58468;SDS011;44257;44.804;10.220;2023-05-07T02:58:37;7.47;;;4.95;;
58468;SDS011;44257;44.804;10.220;2023-05-07T03:01:08;7.13;;;4.68;;
58468;SDS011;44257;44.804;10.220;2023-05-07T03:03:38;8.57;;;5.50;;
58468;SDS011;44257;44.804;10.220;2023-05-07T03:06:05;9.70;;;5.22;;
58468;SDS011;44257;44.804;10.220;2023-05-07T03:08:32;9.50;;;6.40;;
58468;SDS011;44257;44.804;10.220;2023-05-07T03:10:58;6.63;;;5.85;;
58468;SDS011;44257;44.804;10.220;2023-05-07T03:13:24;8.98;;;5.85;;
58468;SDS011;44257;44.804;10.220;2023-05-07T03:15:51;8.68;;;5.75;;
58468;SDS011;44257;44.804;10.220;2023-05-07T03:18:17;11.65;;;6.60;;
58468;SDS011;44257;44.804;10.220;2023-05-07T03:20:42;11.60;;;6.00;;
58468;SDS011;44257;44.804;10.220;2023-05-07T03:23:08;10.82;;;6.28;;
58468;SDS011;44257;44.804;10.220;2023-05-07T03:25:35;7.10;;;5.07;;
58468;SDS011;44257;44.804;10.220;2023-05-07T03:28:01;8.90;;;6.00;;
58468;SDS011;44257;44.804;10.220;2023-05-07T03:30:35;11.15;;;6.78;;
58468;SDS011;44257;44.804;10.220;2023-05-07T03:33:01;9.32;;;7.05;;
58468;SDS011;44257;44.804;10.220;2023-05-07T03:35:27;10.57;;;7.57;;
58468;SDS011;44257;44.804;10.220;2023-05-07T03:37:53;9.48;;;6.93;;
58468;SDS011;44257;44.804;10.220;2023-05-07T03:40:20;10.38;;;8.30;;
58468;SDS011;44257;44.804;10.220;2023-05-07T03:42:50;8.27;;;6.35;;
58468;SDS011;44257;44.804;10.220;2023-05-07T03:45:19;11.48;;;6.78;;
58468;SDS011;44257;44.804;10.220;2023-05-07T03:50:19;8.38;;;6.40;;
58468;SDS011;44257;44.804;10.220;2023-05-07T03:52:45;10.75;;;6.88;;
58468;SDS011;44257;44.804;10.220;2023-05-07T03:55:12;9.27;;;5.85;;
58468;SDS011;44257;44.804;10.220;2023-05-07T03:57:42;7.30;;;5.75;;
58468;SDS011;44257;44.804;10.220;2023-05-07T04:00:08;7.85;;;5.65;;
58468;SDS011;44257;44.804;10.220;2023-05-07T04:02:45;7.50;;;5.68;;
58468;SDS011;44257;44.804;10.220;2023-05-07T04:05:13;8.75;;;4.97;;
58468;SDS011;44257;44.804;10.220;2023-05-07T04:07:41;12.32;;;5.13;;
58468;SDS011;44257;44.804;10.220;2023-05-07T04:10:08;9.20;;;5.00;;
58468;SDS011;44257;44.804;10.220;2023-05-07T04:12:36;7.07;;;4.65;;
58468;SDS011;44257;44.804;10.220;2023-05-07T04:15:04;6.80;;;5.03;;
58468;SDS011;44257;44.804;10.220;2023-05-07T04:17:30;7.38;;;4.90;;
58468;SDS011;44257;44.804;10.220;2023-05-07T04:19:56;8.38;;;4.03;;
58468;SDS011;44257;44.804;10.220;2023-05-07T04:22:22;5.70;;;3.60;;
58468;SDS011;44257;44.804;10.220;2023-05-07T04:24:48;4.18;;;2.83;;
58468;SDS011;44257;44.804;10.220;2023-05-07T04:27:13;4.70;;;3.00;;
58468;SDS011;44257;44.804;10.220;2023-05-07T04:29:40;5.18;;;3.38;;
58468;SDS011;44257;44.804;10.220;2023-05-07T04:32:10;7.28;;;3.53;;
58468;SDS011;44257;44.804;10.220;2023-05-07T04:34:38;4.63;;;3.40;;
58468;SDS011;44257;44.804;10.220;2023-05-07T04:37:04;3.78;;;2.80;;
58468;SDS011;44257;44.804;10.220;2023-05-07T04:39:32;4.88;;;3.10;;
58468;SDS011;44257;44.804;10.220;2023-05-07T04:42:00;5.43;;;3.50;;
58468;SDS011;44257;44.804;10.220;2023-05-07T04:44:26;5.57;;;3.13;;
58468;SDS011;44257;44.804;10.220;2023-05-07T04:46:53;4.35;;;3.13;;
58468;SDS011;44257;44.804;10.220;2023-05-07T04:49:19;7.75;;;3.88;;
58468;SDS011;44257;44.804;10.220;2023-05-07T04:51:45;11.52;;;6.43;;
58468;SDS011;44257;44.804;10.220;2023-05-07T04:54:13;10.07;;;5.53;;
58468;SDS011;44257;44.804;10.220;2023-05-07T04:56:39;7.40;;;4.97;;
58468;SDS011;44257;44.804;10.220;2023-05-07T04:59:04;8.23;;;4.85;;
58468;SDS011;44257;44.804;10.220;2023-05-07T05:01:31;8.25;;;4.88;;
58468;SDS011;44257;44.804;10.220;2023-05-07T05:03:57;5.28;;;3.70;;
58468;SDS011;44257;44.804;10.220;2023-05-07T05:06:25;5.68;;;3.85;;
58468;SDS011;44257;44.804;10.220;2023-05-07T05:08:51;7.28;;;4.22;;
58468;SDS011;44257;44.804;10.220;2023-05-07T05:11:17;6.35;;;4.15;;
58468;SDS011;44257;44.804;10.220;2023-05-07T05:13:43;5.30;;;4.22;;
58468;SDS011;44257;44.804;10.220;2023-05-07T05:16:16;6.82;;;3.67;;
58468;SDS011;44257;44.804;10.220;2023-05-07T05:18:42;6.47;;;4.25;;
58468;SDS011;44257;44.804;10.220;2023-05-07T05:21:09;4.95;;;3.55;;
58468;SDS011;44257;44.804;10.220;2023-05-07T05:23:36;5.28;;;3.20;;
58468;SDS011;44257;44.804;10.220;2023-05-07T05:26:02;3.88;;;2.67;;
58468;SDS011;44257;44.804;10.220;2023-05-07T05:28:30;4.78;;;3.15;;
58468;SDS011;44257;44.804;10.220;2023-05-07T05:30:56;3.83;;;3.17;;
58468;SDS011;44257;44.804;10.220;2023-05-07T05:33:24;5.15;;;3.22;;
58468;SDS011;44257;44.804;10.220;2023-05-07T05:35:50;5.70;;;2.60;;
58468;SDS011;44257;44.804;10.220;2023-05-07T05:38:16;5.70;;;2.90;;
58468;SDS011;44257;44.804;10.220;2023-05-07T05:40:42;3.65;;;2.60;;
58468;SDS011;44257;44.804;10.220;2023-05-07T05:43:08;5.78;;;2.90;;
58468;SDS011;44257;44.804;10.220;2023-05-07T05:45:36;3.83;;;2.50;;
58468;SDS011;44257;44.804;10.220;2023-05-07T05:48:02;4.13;;;2.30;;
58468;SDS011;44257;44.804;10.220;2023-05-07T05:50:28;3.35;;;2.60;;
58468;SDS011;44257;44.804;10.220;2023-05-07T05:52:54;3.38;;;2.40;;
58468;SDS011;44257;44.804;10.220;2023-05-07T05:55:21;3.38;;;2.38;;
58468;SDS011;44257;44.804;10.220;2023-05-07T05:57:47;4.07;;;2.63;;
58468;SDS011;44257;44.804;10.220;2023-05-07T06:00:13;3.63;;;2.55;;
58468;SDS011;44257;44.804;10.220;2023-05-07T06:02:45;4.85;;;3.30;;
58468;SDS011;44257;44.804;10.220;2023-05-07T06:05:15;4.88;;;2.83;;
58468;SDS011;44257;44.804;10.220;2023-05-07T06:07:41;5.40;;;3.25;;
58468;SDS011;44257;44.804;10.220;2023-05-07T06:10:07;4.88;;;3.55;;
58468;SDS011;44257;44.804;10.220;2023-05-07T06:12:34;5.13;;;3.22;;
58468;SDS011;44257;44.804;10.220;2023-05-07T06:15:00;5.13;;;3.88;;
58468;SDS011;44257;44.804;10.220;2023-05-07T06:17:26;4.60;;;3.53;;
58468;SDS011;44257;44.804;10.220;2023-05-07T06:19:52;3.45;;;2.72;;
58468;SDS011;44257;44.804;10.220;2023-05-07T06:22:19;5.53;;;3.75;;
58468;SDS011;44257;44.804;10.220;2023-05-07T06:24:45;5.30;;;4.13;;
58468;SDS011;44257;44.804;10.220;2023-05-07T06:27:11;5.97;;;4.53;;
58468;SDS011;44257;44.804;10.220;2023-05-07T06:29:39;7.05;;;5.28;;
58468;SDS011;44257;44.804;10.220;2023-05-07T06:32:12;6.60;;;4.53;;
58468;SDS011;44257;44.804;10.220;2023-05-07T06:34:41;7.15;;;5.47;;
58468;SDS011;44257;44.804;10.220;2023-05-07T06:37:07;8.02;;;5.55;;
58468;SDS011;44257;44.804;10.220;2023-05-07T06:39:47;6.47;;;4.70;;
58468;SDS011;44257;44.804;10.220;2023-05-07T06:42:13;5.97;;;5.18;;
58468;SDS011;44257;44.804;10.220;2023-05-07T06:44:41;7.32;;;4.55;;
58468;SDS011;44257;44.804;10.220;2023-05-07T06:47:10;6.00;;;4.72;;
58468;SDS011;44257;44.804;10.220;2023-05-07T06:49:38;7.63;;;5.97;;
58468;SDS011;44257;44.804;10.220;2023-05-07T06:52:04;7.15;;;4.88;;
58468;SDS011;44257;44.804;10.220;2023-05-07T06:54:30;7.75;;;5.45;;
58468;SDS011;44257;44.804;10.220;2023-05-07T06:56:57;7.35;;;5.55;;
58468;SDS011;44257;44.804;10.220;2023-05-07T06:59:25;7.70;;;5.38;;
58468;SDS011;44257;44.804;10.220;2023-05-07T07:01:52;6.75;;;4.93;;
58468;SDS011;44257;44.804;10.220;2023-05-07T07:04:18;7.05;;;5.32;;
58468;SDS011;44257;44.804;10.220;2023-05-07T07:06:49;7.53;;;5.60;;
58468;SDS011;44257;44.804;10.220;2023-05-07T07:09:16;9.20;;;6.57;;
58468;SDS011;44257;44.804;10.220;2023-05-07T07:11:42;9.07;;;5.60;;
58468;SDS011;44257;44.804;10.220;2023-05-07T07:14:08;8.48;;;5.90;;
58468;SDS011;44257;44.804;10.220;2023-05-07T07:16:40;10.15;;;8.05;;
58468;SDS011;44257;44.804;10.220;2023-05-07T07:19:06;11.05;;;7.15;;
58468;SDS011;44257;44.804;10.220;2023-05-07T07:21:32;8.32;;;6.53;;
58468;SDS011;44257;44.804;10.220;2023-05-07T07:23:57;8.77;;;7.18;;
58468;SDS011;44257;44.804;10.220;2023-05-07T07:26:24;10.68;;;7.22;;
58468;SDS011;44257;44.804;10.220;2023-05-07T07:28:50;8.85;;;7.10;;
58468;SDS011;44257;44.804;10.220;2023-05-07T07:31:19;8.10;;;7.15;;
58468;SDS011;44257;44.804;10.220;2023-05-07T07:33:46;14.25;;;10.32;;
58468;SDS011;44257;44.804;10.220;2023-05-07T07:36:12;11.80;;;9.45;;
58468;SDS011;44257;44.804;10.220;2023-05-07T07:38:38;11.30;;;8.68;;
58468;SDS011;44257;44.804;10.220;2023-05-07T07:41:05;12.70;;;9.65;;
58468;SDS011;44257;44.804;10.220;2023-05-07T07:43:32;16.70;;;12.88;;
58468;SDS011;44257;44.804;10.220;2023-05-07T07:45:58;14.77;;;11.27;;
58468;SDS011;44257;44.804;10.220;2023-05-07T07:48:25;12.95;;;10.45;;
58468;SDS011;44257;44.804;10.220;2023-05-07T07:50:51;13.23;;;10.35;;
58468;SDS011;44257;44.804;10.220;2023-05-07T07:53:18;11.50;;;10.25;;
58468;SDS011;44257;44.804;10.220;2023-05-07T07:55:44;13.02;;;10.38;;
58468;SDS011;44257;44.804;10.220;2023-05-07T07:58:13;16.77;;;13.00;;
58468;SDS011;44257;44.804;10.220;2023-05-07T08:00:39;13.85;;;11.65;;
58468;SDS011;44257;44.804;10.220;2023-05-07T08:03:05;18.95;;;14.05;;
58468;SDS011;44257;44.804;10.220;2023-05-07T08:05:38;15.23;;;12.80;;
58468;SDS011;44257;44.804;10.220;2023-05-07T08:08:05;18.65;;;13.32;;
58468;SDS011;44257;44.804;10.220;2023-05-07T08:10:32;16.88;;;13.68;;
58468;SDS011;44257;44.804;10.220;2023-05-07T08:13:04;16.45;;;13.63;;
58468;SDS011;44257;44.804;10.220;2023-05-07T08:15:31;16.17;;;13.02;;
58468;SDS011;44257;44.804;10.220;2023-05-07T08:17:58;18.92;;;13.93;;
58468;SDS011;44257;44.804;10.220;2023-05-07T08:20:26;16.00;;;12.35;;
58468;SDS011;44257;44.804;10.220;2023-05-07T08:22:52;16.27;;;13.15;;
58468;SDS011;44257;44.804;10.220;2023-05-07T08:25:18;16.40;;;13.07;;
58468;SDS011;44257;44.804;10.220;2023-05-07T08:27:44;16.30;;;12.43;;
58468;SDS011;44257;44.804;10.220;2023-05-07T08:30:11;15.70;;;12.15;;
58468;SDS011;44257;44.804;10.220;2023-05-07T08:32:38;16.55;;;11.70;;
58468;SDS011;44257;44.804;10.220;2023-05-07T08:35:03;16.70;;;12.23;;
58468;SDS011;44257;44.804;10.220;2023-05-07T08:37:30;14.40;;;11.45;;
58468;SDS011;44257;44.804;10.220;2023-05-07T08:39:56;15.77;;;12.40;;
58468;SDS011;44257;44.804;10.220;2023-05-07T08:42:25;15.85;;;12.32;;
58468;SDS011;44257;44.804;10.220;2023-05-07T08:44:54;12.82;;;11.13;;
58468;SDS011;44257;44.804;10.220;2023-05-07T08:47:22;15.50;;;11.43;;
58468;SDS011;44257;44.804;10.220;2023-05-07T08:49:51;14.57;;;12.30;;
58468;SDS011;44257;44.804;10.220;2023-05-07T08:52:20;15.48;;;11.98;;
58468;SDS011;44257;44.804;10.220;2023-05-07T08:54:47;14.70;;;11.23;;
58468;SDS011;44257;44.804;10.220;2023-05-07T08:57:13;16.10;;;12.27;;
58468;SDS011;44257;44.804;10.220;2023-05-07T08:59:39;14.70;;;11.32;;
58468;SDS011;44257;44.804;10.220;2023-05-07T09:02:06;12.10;;;9.73;;
58468;SDS011;44257;44.804;10.220;2023-05-07T09:04:34;13.15;;;10.45;;
58468;SDS011;44257;44.804;10.220;2023-05-07T09:07:01;10.82;;;8.77;;
58468;SDS011;44257;44.804;10.220;2023-05-07T09:09:32;12.82;;;8.20;;
58468;SDS011;44257;44.804;10.220;2023-05-07T09:12:00;11.18;;;9.18;;
58468;SDS011;44257;44.804;10.220;2023-05-07T09:14:30;12.27;;;10.75;;
58468;SDS011;44257;44.804;10.220;2023-05-07T09:16:56;15.68;;;11.00;;
58468;SDS011;44257;44.804;10.220;2023-05-07T09:19:25;14.90;;;11.55;;
58468;SDS011;44257;44.804;10.220;2023-05-07T09:22:03;13.35;;;11.10;;
58468;SDS011;44257;44.804;10.220;2023-05-07T09:24:40;14.27;;;10.20;;
58468;SDS011;44257;44.804;10.220;2023-05-07T09:27:18;11.18;;;8.98;;
58468;SDS011;44257;44.804;10.220;2023-05-07T09:29:44;14.02;;;10.90;;
58468;SDS011;44257;44.804;10.220;2023-05-07T09:32:11;12.27;;;10.23;;
58468;SDS011;44257;44.804;10.220;2023-05-07T09:34:38;12.55;;;8.25;;
58468;SDS011;44257;44.804;10.220;2023-05-07T09:37:06;10.95;;;8.35;;
58468;SDS011;44257;44.804;10.220;2023-05-07T09:39:39;12.50;;;9.52;;
58468;SDS011;44257;44.804;10.220;2023-05-07T09:42:06;8.57;;;7.13;;
58468;SDS011;44257;44.804;10.220;2023-05-07T09:44:34;11.55;;;9.45;;
58468;SDS011;44257;44.804;10.220;2023-05-07T09:47:06;11.13;;;9.05;;
58468;SDS011;44257;44.804;10.220;2023-05-07T09:49:39;13.02;;;9.65;;
58468;SDS011;44257;44.804;10.220;2023-05-07T09:52:10;14.68;;;10.45;;
58468;SDS011;44257;44.804;10.220;2023-05-07T09:54:40;12.50;;;10.60;;
58468;SDS011;44257;44.804;10.220;2023-05-07T09:57:12;12.73;;;10.65;;
58468;SDS011;44257;44.804;10.220;2023-05-07T09:59:42;13.48;;;10.65;;
58468;SDS011;44257;44.804;10.220;2023-05-07T10:02:12;14.98;;;10.75;;
58468;SDS011;44257;44.804;10.220;2023-05-07T10:04:46;13.65;;;11.02;;
58468;SDS011;44257;44.804;10.220;2023-05-07T10:07:14;10.88;;;9.63;;
58468;SDS011;44257;44.804;10.220;2023-05-07T10:09:42;16.70;;;11.48;;
58468;SDS011;44257;44.804;10.220;2023-05-07T10:12:20;12.48;;;10.05;;
58468;SDS011;44257;44.804;10.220;2023-05-07T10:14:47;12.30;;;10.07;;
58468;SDS011;44257;44.804;10.220;2023-05-07T10:17:16;13.65;;;10.95;;
58468;SDS011;44257;44.804;10.220;2023-05-07T10:19:47;13.30;;;10.32;;
58468;SDS011;44257;44.804;10.220;2023-05-07T10:22:15;14.63;;;11.47;;
58468;SDS011;44257;44.804;10.220;2023-05-07T10:24:44;12.65;;;10.52;;
58468;SDS011;44257;44.804;10.220;2023-05-07T10:27:15;15.75;;;11.27;;
58468;SDS011;44257;44.804;10.220;2023-05-07T10:30:03;15.45;;;10.30;;
58468;SDS011;44257;44.804;10.220;2023-05-07T10:32:53;12.77;;;9.10;;
58468;SDS011;44257;44.804;10.220;2023-05-07T10:35:29;13.25;;;9.70;;
58468;SDS011;44257;44.804;10.220;2023-05-07T10:37:59;15.35;;;12.27;;
58468;SDS011;44257;44.804;10.220;2023-05-07T10:40:28;16.67;;;11.40;;
58468;SDS011;44257;44.804;10.220;2023-05-07T10:42:57;14.02;;;11.10;;
58468;SDS011;44257;44.804;10.220;2023-05-07T10:45:34;14.02;;;11.73;;
58468;SDS011;44257;44.804;10.220;2023-05-07T10:48:16;12.93;;;10.30;;
58468;SDS011;44257;44.804;10.220;2023-05-07T10:50:49;11.70;;;9.85;;
58468;SDS011;44257;44.804;10.220;2023-05-07T10:53:43;15.32;;;11.05;;
58468;SDS011;44257;44.804;10.220;2023-05-07T11:04:41;13.48;;;10.43;;
58468;SDS011;44257;44.804;10.220;2023-05-07T11:07:24;15.32;;;11.35;;
58468;SDS011;44257;44.804;10.220;2023-05-07T11:15:05;14.48;;;8.82;;
58468;SDS011;44257;44.804;10.220;2023-05-07T11:17:53;12.98;;;9.65;;
58468;SDS011;44257;44.804;10.220;2023-05-07T11:20:21;15.10;;;10.90;;
58468;SDS011;44257;44.804;10.220;2023-05-07T11:26:23;12.80;;;10.35;;
58468;SDS011;44257;44.804;10.220;2023-05-07T11:28:51;12.77;;;10.40;;
58468;SDS011;44257;44.804;10.220;2023-05-07T11:31:22;12.32;;;10.93;;
58468;SDS011;44257;44.804;10.220;2023-05-07T11:33:53;11.60;;;10.38;;
58468;SDS011;44257;44.804;10.220;2023-05-07T11:36:21;11.85;;;10.15;;
58468;SDS011;44257;44.804;10.220;2023-05-07T11:38:50;14.13;;;9.60;;
58468;SDS011;44257;44.804;10.220;2023-05-07T11:41:16;11.77;;;10.32;;
58468;SDS011;44257;44.804;10.220;2023-05-07T11:43:54;11.27;;;9.50;;
58468;SDS011;44257;44.804;10.220;2023-05-07T11:46:21;11.95;;;10.48;;
58468;SDS011;44257;44.804;10.220;2023-05-07T11:48:47;11.95;;;9.20;;
58468;SDS011;44257;44.804;10.220;2023-05-07T11:51:13;10.75;;;9.13;;
58468;SDS011;44257;44.804;10.220;2023-05-07T11:53:44;11.45;;;9.43;;
58468;SDS011;44257;44.804;10.220;2023-05-07T11:56:11;10.90;;;9.00;;
58468;SDS011;44257;44.804;10.220;2023-05-07T11:58:39;9.20;;;8.25;;
58468;SDS011;44257;44.804;10.220;2023-05-07T12:01:07;10.32;;;8.27;;
58468;SDS011;44257;44.804;10.220;2023-05-07T12:03:34;11.45;;;9.68;;
58468;SDS011;44257;44.804;10.220;2023-05-07T12:06:02;11.25;;;9.15;;
58468;SDS011;44257;44.804;10.220;2023-05-07T12:08:31;11.30;;;8.75;;
58468;SDS011;44257;44.804;10.220;2023-05-07T12:10:57;12.80;;;8.70;;
58468;SDS011;44257;44.804;10.220;2023-05-07T12:13:24;11.93;;;9.70;;
58468;SDS011;44257;44.804;10.220;2023-05-07T12:15:51;11.10;;;9.35;;
58468;SDS011;44257;44.804;10.220;2023-05-07T12:18:18;12.70;;;9.50;;
58468;SDS011;44257;44.804;10.220;2023-05-07T12:20:44;10.63;;;9.52;;
58468;SDS011;44257;44.804;10.220;2023-05-07T12:23:10;12.35;;;7.53;;
58468;SDS011;44257;44.804;10.220;2023-05-07T12:25:38;10.25;;;8.73;;
58468;SDS011;44257;44.804;10.220;2023-05-07T12:28:05;11.88;;;9.18;;
58468;SDS011;44257;44.804;10.220;2023-05-07T12:30:36;11.20;;;9.55;;
58468;SDS011;44257;44.804;10.220;2023-05-07T12:33:03;12.77;;;9.17;;
58468;SDS011;44257;44.804;10.220;2023-05-07T12:35:29;12.20;;;8.45;;
58468;SDS011;44257;44.804;10.220;2023-05-07T12:37:57;11.23;;;8.90;;
58468;SDS011;44257;44.804;10.220;2023-05-07T12:40:33;12.90;;;8.98;;
58468;SDS011;44257;44.804;10.220;2023-05-07T12:43:04;9.88;;;7.90;;
58468;SDS011;44257;44.804;10.220;2023-05-07T12:45:30;10.52;;;7.75;;
58468;SDS011;44257;44.804;10.220;2023-05-07T12:47:55;10.60;;;7.50;;
58468;SDS011;44257;44.804;10.220;2023-05-07T12:50:22;9.77;;;6.88;;
58468;SDS011;44257;44.804;10.220;2023-05-07T12:52:48;10.88;;;6.93;;
58468;SDS011;44257;44.804;10.220;2023-05-07T12:55:14;10.60;;;8.10;;
58468;SDS011;44257;44.804;10.220;2023-05-07T12:57:42;10.40;;;7.72;;
58468;SDS011;44257;44.804;10.220;2023-05-07T13:00:09;10.32;;;8.35;;
58468;SDS011;44257;44.804;10.220;2023-05-07T13:02:39;10.15;;;7.22;;
58468;SDS011;44257;44.804;10.220;2023-05-07T13:05:07;9.02;;;8.02;;
58468;SDS011;44257;44.804;10.220;2023-05-07T13:07:33;8.57;;;6.68;;
58468;SDS011;44257;44.804;10.220;2023-05-07T13:09:59;9.38;;;7.97;;
58468;SDS011;44257;44.804;10.220;2023-05-07T13:12:25;8.98;;;7.18;;
58468;SDS011;44257;44.804;10.220;2023-05-07T13:14:51;7.72;;;6.47;;
58468;SDS011;44257;44.804;10.220;2023-05-07T13:17:17;9.70;;;6.95;;
58468;SDS011;44257;44.804;10.220;2023-05-07T13:19:43;8.05;;;6.10;;
58468;SDS011;44257;44.804;10.220;2023-05-07T13:22:09;7.22;;;5.50;;
58468;SDS011;44257;44.804;10.220;2023-05-07T13:24:36;7.85;;;5.97;;
58468;SDS011;44257;44.804;10.220;2023-05-07T13:27:02;6.53;;;5.68;;
58468;SDS011;44257;44.804;10.220;2023-05-07T13:29:29;10.75;;;6.93;;
58468;SDS011;44257;44.804;10.220;2023-05-07T13:31:58;7.78;;;6.63;;
58468;SDS011;44257;44.804;10.220;2023-05-07T13:34:25;7.50;;;5.68;;
58468;SDS011;44257;44.804;10.220;2023-05-07T13:36:51;7.50;;;5.80;;
58468;SDS011;44257;44.804;10.220;2023-05-07T13:39:17;7.50;;;5.35;;
58468;SDS011;44257;44.804;10.220;2023-05-07T13:41:43;9.18;;;6.70;;
58468;SDS011;44257;44.804;10.220;2023-05-07T13:44:09;7.55;;;6.43;;
58468;SDS011;44257;44.804;10.220;2023-05-07T13:46:35;8.18;;;6.20;;
58468;SDS011;44257;44.804;10.220;2023-05-07T13:49:01;9.48;;;6.57;;
58468;SDS011;44257;44.804;10.220;2023-05-07T13:51:27;7.40;;;5.72;;
58468;SDS011;44257;44.804;10.220;2023-05-07T13:53:53;8.32;;;5.80;;
58468;SDS011;44257;44.804;10.220;2023-05-07T13:56:19;8.00;;;6.65;;
58468;SDS011;44257;44.804;10.220;2023-05-07T13:58:46;7.22;;;5.43;;
58468;SDS011;44257;44.804;10.220;2023-05-07T14:01:12;8.02;;;5.85;;
58468;SDS011;44257;44.804;10.220;2023-05-07T14:03:37;10.93;;;6.53;;
58468;SDS011;44257;44.804;10.220;2023-05-07T14:06:05;7.63;;;5.72;;
58468;SDS011;44257;44.804;10.220;2023-05-07T14:08:31;7.93;;;5.90;;
58468;SDS011;44257;44.804;10.220;2023-05-07T14:10:57;9.52;;;6.60;;
58468;SDS011;44257;44.804;10.220;2023-05-07T14:13:22;9.55;;;6.93;;
58468;SDS011;44257;44.804;10.220;2023-05-07T14:15:48;6.18;;;5.57;;
58468;SDS011;44257;44.804;10.220;2023-05-07T14:18:15;7.80;;;6.97;;
58468;SDS011;44257;44.804;10.220;2023-05-07T14:20:41;7.80;;;6.32;;
58468;SDS011;44257;44.804;10.220;2023-05-07T14:23:11;9.73;;;6.55;;
58468;SDS011;44257;44.804;10.220;2023-05-07T14:25:37;8.27;;;5.82;;
58468;SDS011;44257;44.804;10.220;2023-05-07T14:28:03;9.13;;;6.47;;
58468;SDS011;44257;44.804;10.220;2023-05-07T14:30:29;8.43;;;6.13;;
58468;SDS011;44257;44.804;10.220;2023-05-07T14:32:55;8.45;;;5.53;;
58468;SDS011;44257;44.804;10.220;2023-05-07T14:35:21;9.18;;;6.43;;
58468;SDS011;44257;44.804;10.220;2023-05-07T14:37:46;7.13;;;6.43;;
58468;SDS011;44257;44.804;10.220;2023-05-07T14:40:12;7.13;;;5.93;;
58468;SDS011;44257;44.804;10.220;2023-05-07T14:42:40;8.52;;;6.25;;
58468;SDS011;44257;44.804;10.220;2023-05-07T14:45:06;8.80;;;6.15;;
58468;SDS011;44257;44.804;10.220;2023-05-07T14:47:32;8.32;;;6.32;;
58468;SDS011;44257;44.804;10.220;2023-05-07T14:49:58;8.23;;;5.95;;
58468;SDS011;44257;44.804;10.220;2023-05-07T14:52:26;9.73;;;6.57;;
58468;SDS011;44257;44.804;10.220;2023-05-07T14:54:52;11.88;;;6.95;;